sensor_id;sensor_type;location;lat;lon;timestamp;P1;durP1;ratioP1;P2;durP2;ratioP2
60352;SDS011;46196;52.970;6.954;2023-03-01T00:00:21;27.58;;;14.15;;
60352;SDS011;46196;52.970;6.954;2023-03-01T00:02:46;26.42;;;14.52;;
60352;SDS011;46196;52.970;6.954;2023-03-01T00:05:12;25.77;;;13.98;;
60352;SDS011;46196;52.970;6.954;2023-03-01T00:07:38;25.02;;;13.15;;
60352;SDS011;46196;52.970;6.954;2023-03-01T00:10:03;26.52;;;13.45;;
60352;SDS011;46196;52.970;6.954;2023-03-01T00:12:30;26.30;;;13.70;;
60352;SDS011;46196;52.970;6.954;2023-03-01T00:14:56;27.13;;;14.10;;
60352;SDS011;46196;52.970;6.954;2023-03-01T00:17:22;21.42;;;12.27;;
60352;SDS011;46196;52.970;6.954;2023-03-01T00:19:48;23.45;;;13.55;;
60352;SDS011;46196;52.970;6.954;2023-03-01T00:22:14;23.83;;;12.55;;
60352;SDS011;46196;52.970;6.954;2023-03-01T00:24:40;26.13;;;13.07;;
60352;SDS011;46196;52.970;6.954;2023-03-01T00:27:05;21.17;;;12.25;;
60352;SDS011;46196;52.970;6.954;2023-03-01T00:29:32;24.05;;;13.05;;
60352;SDS011;46196;52.970;6.954;2023-03-01T00:31:57;22.42;;;12.32;;
60352;SDS011;46196;52.970;6.954;2023-03-01T00:34:24;28.10;;;14.02;;
60352;SDS011;46196;52.970;6.954;2023-03-01T00:36:49;23.08;;;12.43;;
60352;SDS011;46196;52.970;6.954;2023-03-01T00:39:15;23.50;;;12.95;;
60352;SDS011;46196;52.970;6.954;2023-03-01T00:41:41;22.52;;;12.45;;
60352;SDS011;46196;52.970;6.954;2023-03-01T00:44:08;23.48;;;13.52;;
60352;SDS011;46196;52.970;6.954;2023-03-01T00:46:34;22.35;;;12.93;;
60352;SDS011;46196;52.970;6.954;2023-03-01T00:49:00;29.25;;;14.23;;
60352;SDS011;46196;52.970;6.954;2023-03-01T00:51:28;28.05;;;14.45;;
60352;SDS011;46196;52.970;6.954;2023-03-01T00:53:55;23.02;;;13.52;;
60352;SDS011;46196;52.970;6.954;2023-03-01T00:56:22;24.13;;;12.95;;
60352;SDS011;46196;52.970;6.954;2023-03-01T00:58:48;26.23;;;13.40;;
60352;SDS011;46196;52.970;6.954;2023-03-01T01:01:21;23.63;;;12.05;;
60352;SDS011;46196;52.970;6.954;2023-03-01T01:03:53;27.40;;;13.73;;
60352;SDS011;46196;52.970;6.954;2023-03-01T01:06:27;27.17;;;13.80;;
60352;SDS011;46196;52.970;6.954;2023-03-01T01:08:57;23.23;;;12.93;;
60352;SDS011;46196;52.970;6.954;2023-03-01T01:11:24;23.60;;;13.68;;
60352;SDS011;46196;52.970;6.954;2023-03-01T01:13:51;25.92;;;13.20;;
60352;SDS011;46196;52.970;6.954;2023-03-01T01:16:18;28.23;;;13.95;;
60352;SDS011;46196;52.970;6.954;2023-03-01T01:18:46;25.58;;;13.77;;
60352;SDS011;46196;52.970;6.954;2023-03-01T01:21:13;25.65;;;13.27;;
60352;SDS011;46196;52.970;6.954;2023-03-01T01:23:41;25.10;;;12.05;;
60352;SDS011;46196;52.970;6.954;2023-03-01T01:26:18;25.20;;;13.23;;
60352;SDS011;46196;52.970;6.954;2023-03-01T01:28:46;24.20;;;12.93;;
60352;SDS011;46196;52.970;6.954;2023-03-01T01:31:12;25.42;;;12.90;;
60352;SDS011;46196;52.970;6.954;2023-03-01T01:33:39;23.80;;;13.70;;
60352;SDS011;46196;52.970;6.954;2023-03-01T01:36:05;24.17;;;12.13;;
60352;SDS011;46196;52.970;6.954;2023-03-01T01:38:33;24.38;;;13.10;;
60352;SDS011;46196;52.970;6.954;2023-03-01T01:40:59;21.63;;;11.93;;
60352;SDS011;46196;52.970;6.954;2023-03-01T01:43:26;26.15;;;13.77;;
60352;SDS011;46196;52.970;6.954;2023-03-01T01:45:57;24.92;;;13.43;;
60352;SDS011;46196;52.970;6.954;2023-03-01T01:48:39;22.17;;;11.88;;
60352;SDS011;46196;52.970;6.954;2023-03-01T01:51:12;17.77;;;10.80;;
60352;SDS011;46196;52.970;6.954;2023-03-01T01:53:42;17.02;;;9.82;;
60352;SDS011;46196;52.970;6.954;2023-03-01T01:58:39;16.92;;;10.18;;
60352;SDS011;46196;52.970;6.954;2023-03-01T02:01:07;16.50;;;10.50;;
60352;SDS011;46196;52.970;6.954;2023-03-01T02:03:33;16.77;;;9.70;;
60352;SDS011;46196;52.970;6.954;2023-03-01T02:08:37;18.45;;;9.73;;
60352;SDS011;46196;52.970;6.954;2023-03-01T02:11:06;16.85;;;9.73;;
60352;SDS011;46196;52.970;6.954;2023-03-01T02:13:32;16.10;;;9.15;;
60352;SDS011;46196;52.970;6.954;2023-03-01T02:16:04;18.98;;;10.38;;
60352;SDS011;46196;52.970;6.954;2023-03-01T02:18:38;18.90;;;9.73;;
60352;SDS011;46196;52.970;6.954;2023-03-01T02:24:05;15.40;;;10.13;;
60352;SDS011;46196;52.970;6.954;2023-03-01T02:26:46;18.38;;;10.23;;
60352;SDS011;46196;52.970;6.954;2023-03-01T02:29:16;21.17;;;10.27;;
60352;SDS011;46196;52.970;6.954;2023-03-01T02:31:42;18.17;;;10.02;;
60352;SDS011;46196;52.970;6.954;2023-03-01T02:34:10;19.25;;;9.98;;
60352;SDS011;46196;52.970;6.954;2023-03-01T02:36:43;16.20;;;10.00;;
60352;SDS011;46196;52.970;6.954;2023-03-01T02:39:14;17.83;;;10.90;;
60352;SDS011;46196;52.970;6.954;2023-03-01T02:41:48;16.48;;;9.70;;
60352;SDS011;46196;52.970;6.954;2023-03-01T02:44:16;17.20;;;10.82;;
60352;SDS011;46196;52.970;6.954;2023-03-01T02:46:43;18.48;;;10.13;;
60352;SDS011;46196;52.970;6.954;2023-03-01T02:49:44;18.83;;;10.85;;
60352;SDS011;46196;52.970;6.954;2023-03-01T02:54:46;17.67;;;10.18;;
60352;SDS011;46196;52.970;6.954;2023-03-01T02:57:26;20.23;;;11.25;;
60352;SDS011;46196;52.970;6.954;2023-03-01T02:59:54;19.20;;;10.85;;
60352;SDS011;46196;52.970;6.954;2023-03-01T03:02:23;18.55;;;11.40;;
60352;SDS011;46196;52.970;6.954;2023-03-01T03:05:08;14.90;;;9.63;;
60352;SDS011;46196;52.970;6.954;2023-03-01T03:07:38;15.90;;;9.68;;
60352;SDS011;46196;52.970;6.954;2023-03-01T03:10:07;19.20;;;10.15;;
60352;SDS011;46196;52.970;6.954;2023-03-01T03:12:36;16.88;;;10.93;;
60352;SDS011;46196;52.970;6.954;2023-03-01T03:15:03;17.67;;;10.55;;
60352;SDS011;46196;52.970;6.954;2023-03-01T03:17:36;16.73;;;10.32;;
60352;SDS011;46196;52.970;6.954;2023-03-01T03:20:03;18.48;;;10.30;;
60352;SDS011;46196;52.970;6.954;2023-03-01T03:22:30;16.55;;;10.57;;
60352;SDS011;46196;52.970;6.954;2023-03-01T03:25:03;16.38;;;10.32;;
60352;SDS011;46196;52.970;6.954;2023-03-01T03:27:29;16.40;;;10.10;;
60352;SDS011;46196;52.970;6.954;2023-03-01T03:29:57;17.05;;;9.93;;
60352;SDS011;46196;52.970;6.954;2023-03-01T03:32:22;14.63;;;9.27;;
60352;SDS011;46196;52.970;6.954;2023-03-01T03:34:48;17.73;;;10.70;;
60352;SDS011;46196;52.970;6.954;2023-03-01T03:37:14;20.05;;;10.95;;
60352;SDS011;46196;52.970;6.954;2023-03-01T03:40:00;15.73;;;10.00;;
60352;SDS011;46196;52.970;6.954;2023-03-01T03:42:25;14.85;;;9.48;;
60352;SDS011;46196;52.970;6.954;2023-03-01T03:44:51;14.52;;;9.10;;
60352;SDS011;46196;52.970;6.954;2023-03-01T03:47:17;15.50;;;9.68;;
60352;SDS011;46196;52.970;6.954;2023-03-01T03:49:42;16.67;;;9.80;;
60352;SDS011;46196;52.970;6.954;2023-03-01T03:52:08;15.68;;;10.13;;
60352;SDS011;46196;52.970;6.954;2023-03-01T03:54:39;16.75;;;9.90;;
60352;SDS011;46196;52.970;6.954;2023-03-01T03:57:05;15.27;;;9.43;;
60352;SDS011;46196;52.970;6.954;2023-03-01T03:59:31;19.05;;;10.05;;
60352;SDS011;46196;52.970;6.954;2023-03-01T04:01:57;16.00;;;9.80;;
60352;SDS011;46196;52.970;6.954;2023-03-01T04:04:23;15.98;;;10.15;;
60352;SDS011;46196;52.970;6.954;2023-03-01T04:06:48;15.13;;;8.98;;
60352;SDS011;46196;52.970;6.954;2023-03-01T04:09:14;14.75;;;9.43;;
60352;SDS011;46196;52.970;6.954;2023-03-01T04:11:40;18.52;;;9.77;;
60352;SDS011;46196;52.970;6.954;2023-03-01T04:14:06;17.17;;;9.95;;
60352;SDS011;46196;52.970;6.954;2023-03-01T04:16:31;16.65;;;10.25;;
60352;SDS011;46196;52.970;6.954;2023-03-01T04:18:57;16.73;;;10.15;;
60352;SDS011;46196;52.970;6.954;2023-03-01T04:21:24;16.30;;;9.95;;
60352;SDS011;46196;52.970;6.954;2023-03-01T04:23:50;16.15;;;10.45;;
60352;SDS011;46196;52.970;6.954;2023-03-01T04:26:18;19.40;;;9.85;;
60352;SDS011;46196;52.970;6.954;2023-03-01T04:28:45;15.85;;;9.52;;
60352;SDS011;46196;52.970;6.954;2023-03-01T04:31:14;16.65;;;10.05;;
60352;SDS011;46196;52.970;6.954;2023-03-01T04:33:45;16.90;;;9.45;;
60352;SDS011;46196;52.970;6.954;2023-03-01T04:36:16;14.02;;;9.00;;
60352;SDS011;46196;52.970;6.954;2023-03-01T04:38:44;15.27;;;9.18;;
60352;SDS011;46196;52.970;6.954;2023-03-01T04:41:15;16.25;;;9.98;;
60352;SDS011;46196;52.970;6.954;2023-03-01T04:43:42;15.95;;;9.60;;
60352;SDS011;46196;52.970;6.954;2023-03-01T04:46:09;14.73;;;9.13;;
60352;SDS011;46196;52.970;6.954;2023-03-01T04:48:38;14.68;;;9.52;;
60352;SDS011;46196;52.970;6.954;2023-03-01T04:51:04;15.45;;;9.60;;
60352;SDS011;46196;52.970;6.954;2023-03-01T04:53:31;15.93;;;10.15;;
60352;SDS011;46196;52.970;6.954;2023-03-01T04:55:57;14.32;;;9.25;;
60352;SDS011;46196;52.970;6.954;2023-03-01T04:58:24;18.50;;;9.55;;
60352;SDS011;46196;52.970;6.954;2023-03-01T05:00:51;17.52;;;9.95;;
60352;SDS011;46196;52.970;6.954;2023-03-01T05:03:17;18.48;;;9.95;;
60352;SDS011;46196;52.970;6.954;2023-03-01T05:05:44;16.95;;;10.02;;
60352;SDS011;46196;52.970;6.954;2023-03-01T05:08:11;16.75;;;9.45;;
60352;SDS011;46196;52.970;6.954;2023-03-01T05:10:43;17.00;;;9.68;;
60352;SDS011;46196;52.970;6.954;2023-03-01T05:13:17;18.33;;;9.07;;
60352;SDS011;46196;52.970;6.954;2023-03-01T05:15:56;18.10;;;9.80;;
60352;SDS011;46196;52.970;6.954;2023-03-01T05:18:27;12.65;;;8.40;;
60352;SDS011;46196;52.970;6.954;2023-03-01T05:20:53;13.60;;;9.00;;
60352;SDS011;46196;52.970;6.954;2023-03-01T05:23:23;12.75;;;8.85;;
60352;SDS011;46196;52.970;6.954;2023-03-01T05:25:49;13.45;;;8.55;;
60352;SDS011;46196;52.970;6.954;2023-03-01T05:28:17;14.75;;;9.27;;
60352;SDS011;46196;52.970;6.954;2023-03-01T05:30:44;16.05;;;9.55;;
60352;SDS011;46196;52.970;6.954;2023-03-01T05:33:11;13.30;;;9.00;;
60352;SDS011;46196;52.970;6.954;2023-03-01T05:35:40;15.13;;;9.65;;
60352;SDS011;46196;52.970;6.954;2023-03-01T05:38:07;13.60;;;8.48;;
60352;SDS011;46196;52.970;6.954;2023-03-01T05:40:34;15.85;;;9.80;;
60352;SDS011;46196;52.970;6.954;2023-03-01T05:43:00;14.43;;;8.60;;
60352;SDS011;46196;52.970;6.954;2023-03-01T05:45:29;14.10;;;8.60;;
60352;SDS011;46196;52.970;6.954;2023-03-01T05:47:57;13.88;;;8.50;;
60352;SDS011;46196;52.970;6.954;2023-03-01T05:50:25;14.57;;;9.00;;
60352;SDS011;46196;52.970;6.954;2023-03-01T05:52:57;13.27;;;9.00;;
60352;SDS011;46196;52.970;6.954;2023-03-01T05:55:28;16.30;;;9.10;;
60352;SDS011;46196;52.970;6.954;2023-03-01T05:57:57;15.57;;;8.98;;
60352;SDS011;46196;52.970;6.954;2023-03-01T06:00:24;14.87;;;9.60;;
60352;SDS011;46196;52.970;6.954;2023-03-01T06:02:53;14.80;;;8.68;;
60352;SDS011;46196;52.970;6.954;2023-03-01T06:05:19;12.23;;;8.30;;
60352;SDS011;46196;52.970;6.954;2023-03-01T06:07:45;13.23;;;9.13;;
60352;SDS011;46196;52.970;6.954;2023-03-01T06:10:12;14.70;;;9.23;;
60352;SDS011;46196;52.970;6.954;2023-03-01T06:12:38;15.38;;;9.45;;
60352;SDS011;46196;52.970;6.954;2023-03-01T06:15:05;14.18;;;9.23;;
60352;SDS011;46196;52.970;6.954;2023-03-01T06:17:33;14.60;;;9.20;;
60352;SDS011;46196;52.970;6.954;2023-03-01T06:20:03;14.57;;;9.50;;
60352;SDS011;46196;52.970;6.954;2023-03-01T06:22:31;15.27;;;9.15;;
60352;SDS011;46196;52.970;6.954;2023-03-01T06:24:57;16.67;;;9.57;;
60352;SDS011;46196;52.970;6.954;2023-03-01T06:27:22;15.90;;;9.45;;
60352;SDS011;46196;52.970;6.954;2023-03-01T06:29:48;14.13;;;9.65;;
60352;SDS011;46196;52.970;6.954;2023-03-01T06:32:14;14.35;;;9.32;;
60352;SDS011;46196;52.970;6.954;2023-03-01T06:34:40;15.00;;;9.10;;
60352;SDS011;46196;52.970;6.954;2023-03-01T06:37:06;15.18;;;9.65;;
60352;SDS011;46196;52.970;6.954;2023-03-01T06:39:32;16.90;;;10.45;;
60352;SDS011;46196;52.970;6.954;2023-03-01T06:41:58;14.77;;;10.68;;
60352;SDS011;46196;52.970;6.954;2023-03-01T06:44:24;18.35;;;10.70;;
60352;SDS011;46196;52.970;6.954;2023-03-01T06:46:50;23.80;;;14.88;;
60352;SDS011;46196;52.970;6.954;2023-03-01T06:49:16;21.50;;;13.75;;
60352;SDS011;46196;52.970;6.954;2023-03-01T06:51:43;23.02;;;14.05;;
60352;SDS011;46196;52.970;6.954;2023-03-01T06:54:09;18.02;;;12.48;;
60352;SDS011;46196;52.970;6.954;2023-03-01T06:56:35;20.55;;;12.60;;
60352;SDS011;46196;52.970;6.954;2023-03-01T06:59:01;20.58;;;11.98;;
60352;SDS011;46196;52.970;6.954;2023-03-01T07:01:27;18.08;;;11.68;;
60352;SDS011;46196;52.970;6.954;2023-03-01T07:03:54;18.90;;;11.77;;
60352;SDS011;46196;52.970;6.954;2023-03-01T07:06:21;22.33;;;13.00;;
60352;SDS011;46196;52.970;6.954;2023-03-01T07:08:47;21.50;;;13.60;;
60352;SDS011;46196;52.970;6.954;2023-03-01T07:11:13;21.50;;;12.90;;
60352;SDS011;46196;52.970;6.954;2023-03-01T07:13:39;19.08;;;12.65;;
60352;SDS011;46196;52.970;6.954;2023-03-01T07:16:05;17.88;;;11.60;;
60352;SDS011;46196;52.970;6.954;2023-03-01T07:18:31;22.73;;;13.27;;
60352;SDS011;46196;52.970;6.954;2023-03-01T07:20:57;22.98;;;12.98;;
60352;SDS011;46196;52.970;6.954;2023-03-01T07:23:23;20.00;;;12.23;;
60352;SDS011;46196;52.970;6.954;2023-03-01T07:25:52;22.17;;;13.35;;
60352;SDS011;46196;52.970;6.954;2023-03-01T07:28:19;18.50;;;12.35;;
60352;SDS011;46196;52.970;6.954;2023-03-01T07:30:47;18.73;;;11.50;;
60352;SDS011;46196;52.970;6.954;2023-03-01T07:33:13;15.50;;;11.55;;
60352;SDS011;46196;52.970;6.954;2023-03-01T07:35:38;21.05;;;12.95;;
60352;SDS011;46196;52.970;6.954;2023-03-01T07:38:04;23.45;;;14.40;;
60352;SDS011;46196;52.970;6.954;2023-03-01T07:40:30;23.48;;;14.95;;
60352;SDS011;46196;52.970;6.954;2023-03-01T07:42:56;24.42;;;14.93;;
60352;SDS011;46196;52.970;6.954;2023-03-01T07:45:23;24.52;;;14.80;;
60352;SDS011;46196;52.970;6.954;2023-03-01T07:47:50;27.83;;;16.48;;
60352;SDS011;46196;52.970;6.954;2023-03-01T07:50:16;29.55;;;17.48;;
60352;SDS011;46196;52.970;6.954;2023-03-01T07:52:45;31.75;;;18.08;;
60352;SDS011;46196;52.970;6.954;2023-03-01T07:55:11;37.15;;;18.40;;
60352;SDS011;46196;52.970;6.954;2023-03-01T07:57:37;29.17;;;18.33;;
60352;SDS011;46196;52.970;6.954;2023-03-01T08:00:04;32.60;;;18.63;;
60352;SDS011;46196;52.970;6.954;2023-03-01T08:02:30;30.30;;;18.08;;
60352;SDS011;46196;52.970;6.954;2023-03-01T08:04:56;32.72;;;18.52;;
60352;SDS011;46196;52.970;6.954;2023-03-01T08:07:22;33.70;;;20.70;;
60352;SDS011;46196;52.970;6.954;2023-03-01T08:09:48;35.65;;;19.77;;
60352;SDS011;46196;52.970;6.954;2023-03-01T08:12:14;40.97;;;24.17;;
60352;SDS011;46196;52.970;6.954;2023-03-01T08:14:42;39.88;;;22.23;;
60352;SDS011;46196;52.970;6.954;2023-03-01T08:17:07;38.33;;;22.65;;
60352;SDS011;46196;52.970;6.954;2023-03-01T08:19:33;32.83;;;20.77;;
60352;SDS011;46196;52.970;6.954;2023-03-01T08:22:01;37.55;;;21.15;;
60352;SDS011;46196;52.970;6.954;2023-03-01T08:24:27;31.25;;;19.85;;
60352;SDS011;46196;52.970;6.954;2023-03-01T08:26:53;30.00;;;19.05;;
60352;SDS011;46196;52.970;6.954;2023-03-01T08:29:19;28.98;;;18.15;;
60352;SDS011;46196;52.970;6.954;2023-03-01T08:31:45;27.90;;;18.13;;
60352;SDS011;46196;52.970;6.954;2023-03-01T08:34:13;26.17;;;16.85;;
60352;SDS011;46196;52.970;6.954;2023-03-01T08:36:42;24.95;;;16.33;;
60352;SDS011;46196;52.970;6.954;2023-03-01T08:39:10;23.25;;;15.95;;
60352;SDS011;46196;52.970;6.954;2023-03-01T08:41:38;22.98;;;16.02;;
60352;SDS011;46196;52.970;6.954;2023-03-01T08:44:04;23.35;;;16.13;;
60352;SDS011;46196;52.970;6.954;2023-03-01T08:46:31;21.48;;;14.68;;
60352;SDS011;46196;52.970;6.954;2023-03-01T08:48:59;21.45;;;16.75;;
60352;SDS011;46196;52.970;6.954;2023-03-01T08:51:25;20.90;;;16.17;;
60352;SDS011;46196;52.970;6.954;2023-03-01T08:53:51;22.25;;;16.05;;
60352;SDS011;46196;52.970;6.954;2023-03-01T08:56:18;19.02;;;14.80;;
60352;SDS011;46196;52.970;6.954;2023-03-01T08:58:45;19.88;;;15.48;;
60352;SDS011;46196;52.970;6.954;2023-03-01T09:01:13;26.70;;;17.95;;
60352;SDS011;46196;52.970;6.954;2023-03-01T09:03:43;29.85;;;18.98;;
60352;SDS011;46196;52.970;6.954;2023-03-01T09:06:10;24.85;;;17.45;;
60352;SDS011;46196;52.970;6.954;2023-03-01T09:08:40;24.30;;;17.80;;
60352;SDS011;46196;52.970;6.954;2023-03-01T09:11:11;25.38;;;18.02;;
60352;SDS011;46196;52.970;6.954;2023-03-01T09:13:38;25.77;;;17.75;;
60352;SDS011;46196;52.970;6.954;2023-03-01T09:16:05;27.02;;;18.15;;
60352;SDS011;46196;52.970;6.954;2023-03-01T09:18:32;25.35;;;17.77;;
60352;SDS011;46196;52.970;6.954;2023-03-01T09:21:09;23.73;;;16.92;;
60352;SDS011;46196;52.970;6.954;2023-03-01T09:23:39;23.33;;;16.08;;
60352;SDS011;46196;52.970;6.954;2023-03-01T09:26:07;25.70;;;16.83;;
60352;SDS011;46196;52.970;6.954;2023-03-01T09:28:34;23.27;;;16.63;;
60352;SDS011;46196;52.970;6.954;2023-03-01T09:31:01;23.45;;;15.45;;
60352;SDS011;46196;52.970;6.954;2023-03-01T09:33:28;24.55;;;16.80;;
60352;SDS011;46196;52.970;6.954;2023-03-01T09:35:59;24.45;;;16.70;;
60352;SDS011;46196;52.970;6.954;2023-03-01T09:38:29;23.20;;;15.90;;
60352;SDS011;46196;52.970;6.954;2023-03-01T09:40:56;21.88;;;15.93;;
60352;SDS011;46196;52.970;6.954;2023-03-01T09:45:50;20.10;;;13.77;;
60352;SDS011;46196;52.970;6.954;2023-03-01T09:48:21;22.63;;;14.85;;
60352;SDS011;46196;52.970;6.954;2023-03-01T09:50:51;19.58;;;14.13;;
60352;SDS011;46196;52.970;6.954;2023-03-01T09:53:18;18.33;;;11.93;;
60352;SDS011;46196;52.970;6.954;2023-03-01T09:55:55;19.58;;;12.77;;
60352;SDS011;46196;52.970;6.954;2023-03-01T10:06:38;16.92;;;11.15;;
60352;SDS011;46196;52.970;6.954;2023-03-01T10:11:47;18.38;;;11.68;;
60352;SDS011;46196;52.970;6.954;2023-03-01T10:22:41;18.40;;;12.15;;
60352;SDS011;46196;52.970;6.954;2023-03-01T10:27:52;22.02;;;13.52;;
60352;SDS011;46196;52.970;6.954;2023-03-01T10:30:29;18.30;;;12.15;;
60352;SDS011;46196;52.970;6.954;2023-03-01T10:33:01;16.95;;;10.57;;
60352;SDS011;46196;52.970;6.954;2023-03-01T10:35:28;17.55;;;11.52;;
60352;SDS011;46196;52.970;6.954;2023-03-01T10:38:08;13.95;;;9.48;;
60352;SDS011;46196;52.970;6.954;2023-03-01T10:40:35;13.98;;;9.02;;
60352;SDS011;46196;52.970;6.954;2023-03-01T10:43:14;12.07;;;8.30;;
60352;SDS011;46196;52.970;6.954;2023-03-01T10:45:40;15.13;;;8.35;;
60352;SDS011;46196;52.970;6.954;2023-03-01T10:48:16;11.75;;;8.10;;
60352;SDS011;46196;52.970;6.954;2023-03-01T10:51:04;13.35;;;8.57;;
60352;SDS011;46196;52.970;6.954;2023-03-01T10:53:36;11.95;;;8.27;;
60352;SDS011;46196;52.970;6.954;2023-03-01T10:58:39;11.50;;;8.07;;
60352;SDS011;46196;52.970;6.954;2023-03-01T11:01:49;11.95;;;8.20;;
60352;SDS011;46196;52.970;6.954;2023-03-01T11:06:32;12.65;;;6.57;;
60352;SDS011;46196;52.970;6.954;2023-03-01T11:11:45;12.05;;;7.43;;
60352;SDS011;46196;52.970;6.954;2023-03-01T11:14:23;10.20;;;6.75;;
60352;SDS011;46196;52.970;6.954;2023-03-01T11:17:12;13.57;;;7.68;;
60352;SDS011;46196;52.970;6.954;2023-03-01T11:22:39;13.35;;;7.85;;
60352;SDS011;46196;52.970;6.954;2023-03-01T11:25:31;13.35;;;7.35;;
60352;SDS011;46196;52.970;6.954;2023-03-01T11:28:01;12.43;;;7.25;;
60352;SDS011;46196;52.970;6.954;2023-03-01T11:38:36;12.75;;;7.82;;
60352;SDS011;46196;52.970;6.954;2023-03-01T11:41:16;16.95;;;8.93;;
60352;SDS011;46196;52.970;6.954;2023-03-01T11:48:56;15.60;;;9.20;;
60352;SDS011;46196;52.970;6.954;2023-03-01T12:00:06;15.50;;;9.82;;
60352;SDS011;46196;52.970;6.954;2023-03-01T12:05:42;17.33;;;10.52;;
60352;SDS011;46196;52.970;6.954;2023-03-01T12:24:13;14.98;;;9.25;;
60352;SDS011;46196;52.970;6.954;2023-03-01T12:35:02;14.68;;;8.90;;
60352;SDS011;46196;52.970;6.954;2023-03-01T12:51:26;13.35;;;7.95;;
60352;SDS011;46196;52.970;6.954;2023-03-01T12:53:54;13.82;;;8.90;;
60352;SDS011;46196;52.970;6.954;2023-03-01T12:56:23;12.80;;;8.02;;
60352;SDS011;46196;52.970;6.954;2023-03-01T12:58:54;12.70;;;8.18;;
60352;SDS011;46196;52.970;6.954;2023-03-01T13:01:28;12.93;;;7.50;;
60352;SDS011;46196;52.970;6.954;2023-03-01T13:17:48;12.77;;;7.80;;
60352;SDS011;46196;52.970;6.954;2023-03-01T13:20:21;14.75;;;9.77;;
60352;SDS011;46196;52.970;6.954;2023-03-01T13:25:59;14.45;;;9.00;;
60352;SDS011;46196;52.970;6.954;2023-03-01T13:31:00;14.02;;;9.10;;
60352;SDS011;46196;52.970;6.954;2023-03-01T13:35:53;13.50;;;9.05;;
60352;SDS011;46196;52.970;6.954;2023-03-01T13:41:07;12.82;;;8.57;;
60352;SDS011;46196;52.970;6.954;2023-03-01T13:43:38;15.00;;;9.18;;
60352;SDS011;46196;52.970;6.954;2023-03-01T13:46:19;12.30;;;7.88;;
60352;SDS011;46196;52.970;6.954;2023-03-01T13:48:48;13.27;;;8.57;;
60352;SDS011;46196;52.970;6.954;2023-03-01T13:51:20;11.40;;;7.63;;
60352;SDS011;46196;52.970;6.954;2023-03-01T13:53:50;13.48;;;9.48;;
60352;SDS011;46196;52.970;6.954;2023-03-01T13:56:24;13.52;;;8.88;;
60352;SDS011;46196;52.970;6.954;2023-03-01T13:58:53;12.02;;;9.20;;
60352;SDS011;46196;52.970;6.954;2023-03-01T14:01:35;15.80;;;9.27;;
60352;SDS011;46196;52.970;6.954;2023-03-01T14:04:01;14.60;;;8.70;;
60352;SDS011;46196;52.970;6.954;2023-03-01T14:06:29;15.82;;;9.02;;
60352;SDS011;46196;52.970;6.954;2023-03-01T14:09:17;15.30;;;9.25;;
60352;SDS011;46196;52.970;6.954;2023-03-01T14:14:56;13.90;;;8.60;;
60352;SDS011;46196;52.970;6.954;2023-03-01T14:20:20;13.52;;;8.65;;
60352;SDS011;46196;52.970;6.954;2023-03-01T14:22:48;11.52;;;8.10;;
60352;SDS011;46196;52.970;6.954;2023-03-01T14:27:54;14.23;;;8.88;;
60352;SDS011;46196;52.970;6.954;2023-03-01T14:30:24;11.73;;;8.13;;
60352;SDS011;46196;52.970;6.954;2023-03-01T14:33:00;15.75;;;9.18;;
60352;SDS011;46196;52.970;6.954;2023-03-01T14:35:32;13.40;;;9.20;;
60352;SDS011;46196;52.970;6.954;2023-03-01T14:38:00;17.25;;;10.50;;
60352;SDS011;46196;52.970;6.954;2023-03-01T14:40:31;16.27;;;9.82;;
60352;SDS011;46196;52.970;6.954;2023-03-01T14:43:00;14.55;;;9.30;;
60352;SDS011;46196;52.970;6.954;2023-03-01T14:45:33;15.70;;;9.20;;
60352;SDS011;46196;52.970;6.954;2023-03-01T14:48:00;14.48;;;9.18;;
60352;SDS011;46196;52.970;6.954;2023-03-01T14:52:57;13.85;;;8.63;;
60352;SDS011;46196;52.970;6.954;2023-03-01T14:55:30;21.92;;;11.15;;
60352;SDS011;46196;52.970;6.954;2023-03-01T14:58:08;14.65;;;9.30;;
60352;SDS011;46196;52.970;6.954;2023-03-01T15:00:37;19.70;;;9.35;;
60352;SDS011;46196;52.970;6.954;2023-03-01T15:03:08;14.75;;;9.50;;
60352;SDS011;46196;52.970;6.954;2023-03-01T15:05:39;13.93;;;8.55;;
60352;SDS011;46196;52.970;6.954;2023-03-01T15:08:07;17.17;;;9.45;;
60352;SDS011;46196;52.970;6.954;2023-03-01T15:13:34;15.57;;;9.18;;
60352;SDS011;46196;52.970;6.954;2023-03-01T15:16:13;15.25;;;9.45;;
60352;SDS011;46196;52.970;6.954;2023-03-01T15:18:49;17.17;;;10.10;;
60352;SDS011;46196;52.970;6.954;2023-03-01T15:21:38;14.40;;;9.05;;
60352;SDS011;46196;52.970;6.954;2023-03-01T15:24:16;15.60;;;9.45;;
60352;SDS011;46196;52.970;6.954;2023-03-01T15:26:53;15.27;;;10.07;;
60352;SDS011;46196;52.970;6.954;2023-03-01T15:29:27;15.43;;;11.00;;
60352;SDS011;46196;52.970;6.954;2023-03-01T15:32:05;14.77;;;9.90;;
60352;SDS011;46196;52.970;6.954;2023-03-01T15:34:49;13.32;;;8.75;;
60352;SDS011;46196;52.970;6.954;2023-03-01T15:43:04;14.70;;;9.80;;
60352;SDS011;46196;52.970;6.954;2023-03-01T15:45:31;19.05;;;10.13;;
60352;SDS011;46196;52.970;6.954;2023-03-01T15:48:17;17.70;;;9.95;;
60352;SDS011;46196;52.970;6.954;2023-03-01T15:50:53;15.85;;;9.65;;
60352;SDS011;46196;52.970;6.954;2023-03-01T15:53:20;15.13;;;9.52;;
60352;SDS011;46196;52.970;6.954;2023-03-01T15:55:46;15.23;;;10.13;;
60352;SDS011;46196;52.970;6.954;2023-03-01T15:58:21;16.23;;;10.35;;
60352;SDS011;46196;52.970;6.954;2023-03-01T16:00:49;20.05;;;9.73;;
60352;SDS011;46196;52.970;6.954;2023-03-01T16:03:20;15.88;;;9.73;;
60352;SDS011;46196;52.970;6.954;2023-03-01T16:05:47;17.13;;;10.23;;
60352;SDS011;46196;52.970;6.954;2023-03-01T16:08:15;16.77;;;10.20;;
60352;SDS011;46196;52.970;6.954;2023-03-01T16:10:42;17.40;;;10.90;;
60352;SDS011;46196;52.970;6.954;2023-03-01T16:13:13;16.67;;;10.67;;
60352;SDS011;46196;52.970;6.954;2023-03-01T16:15:40;21.00;;;10.48;;
60352;SDS011;46196;52.970;6.954;2023-03-01T16:18:06;17.55;;;10.40;;
60352;SDS011;46196;52.970;6.954;2023-03-01T16:20:35;21.77;;;10.57;;
60352;SDS011;46196;52.970;6.954;2023-03-01T16:23:01;19.10;;;11.48;;
60352;SDS011;46196;52.970;6.954;2023-03-01T16:25:29;18.70;;;11.52;;
60352;SDS011;46196;52.970;6.954;2023-03-01T16:27:57;22.45;;;12.77;;
60352;SDS011;46196;52.970;6.954;2023-03-01T16:30:26;19.63;;;12.38;;
60352;SDS011;46196;52.970;6.954;2023-03-01T16:32:52;22.90;;;11.77;;
60352;SDS011;46196;52.970;6.954;2023-03-01T16:35:19;19.48;;;11.30;;
60352;SDS011;46196;52.970;6.954;2023-03-01T16:37:46;21.55;;;12.90;;
60352;SDS011;46196;52.970;6.954;2023-03-01T16:40:23;19.73;;;11.90;;
60352;SDS011;46196;52.970;6.954;2023-03-01T16:42:51;21.77;;;12.13;;
60352;SDS011;46196;52.970;6.954;2023-03-01T16:45:18;21.70;;;12.18;;
60352;SDS011;46196;52.970;6.954;2023-03-01T16:47:44;12.05;;;8.45;;
60352;SDS011;46196;52.970;6.954;2023-03-01T16:50:10;26.58;;;12.77;;
60352;SDS011;46196;52.970;6.954;2023-03-01T16:52:36;22.90;;;13.07;;
60352;SDS011;46196;52.970;6.954;2023-03-01T16:55:04;22.52;;;13.30;;
60352;SDS011;46196;52.970;6.954;2023-03-01T16:57:33;21.98;;;12.13;;
60352;SDS011;46196;52.970;6.954;2023-03-01T16:59:59;21.90;;;13.02;;
60352;SDS011;46196;52.970;6.954;2023-03-01T17:02:25;20.73;;;11.95;;
60352;SDS011;46196;52.970;6.954;2023-03-01T17:04:52;21.73;;;12.38;;
60352;SDS011;46196;52.970;6.954;2023-03-01T17:07:19;23.73;;;12.68;;
60352;SDS011;46196;52.970;6.954;2023-03-01T17:09:45;21.20;;;13.27;;